sensor_id;sensor_type;location;lat;lon;timestamp;pressure;altitude;pressure_sealevel;temperature;humidity
58295;BME280;45705;55.592;37.460;2023-01-01T00:01:07;98685.81;;;1.00;100.00
58295;BME280;45705;55.592;37.460;2023-01-01T00:03:34;98681.78;;;0.65;100.00
58295;BME280;45705;55.592;37.460;2023-01-01T00:06:07;98685.94;;;0.83;100.00
58295;BME280;45705;55.592;37.460;2023-01-01T00:08:34;98678.59;;;0.68;100.00
58295;BME280;45705;55.592;37.460;2023-01-01T00:11:01;98685.56;;;0.69;100.00
58295;BME280;45705;55.592;37.460;2023-01-01T00:13:27;98679.53;;;0.52;100.00
58295;BME280;45705;55.592;37.460;2023-01-01T00:15:52;98684.59;;;0.81;100.00
58295;BME280;45705;55.592;37.460;2023-01-01T00:18:18;98669.06;;;0.83;100.00
58295;BME280;45705;55.592;37.460;2023-01-01T00:20:44;98670.97;;;0.87;100.00
58295;BME280;45705;55.592;37.460;2023-01-01T00:23:09;98660.31;;;0.60;100.00
58295;BME280;45705;55.592;37.460;2023-01-01T00:25:35;98656.41;;;0.41;100.00
58295;BME280;45705;55.592;37.460;2023-01-01T00:28:01;98662.56;;;0.68;100.00
58295;BME280;45705;55.592;37.460;2023-01-01T00:30:27;98658.78;;;0.64;100.00
58295;BME280;45705;55.592;37.460;2023-01-01T00:32:53;98659.53;;;0.59;100.00
58295;BME280;45705;55.592;37.460;2023-01-01T00:35:18;98658.94;;;0.52;100.00
58295;BME280;45705;55.592;37.460;2023-01-01T00:37:44;98659.22;;;0.56;100.00
58295;BME280;45705;55.592;37.460;2023-01-01T00:40:10;98647.00;;;0.65;100.00
58295;BME280;45705;55.592;37.460;2023-01-01T00:42:36;98637.94;;;0.66;100.00
58295;BME280;45705;55.592;37.460;2023-01-01T00:45:05;98636.16;;;0.45;100.00
58295;BME280;45705;55.592;37.460;2023-01-01T00:47:31;98622.19;;;0.43;100.00
58295;BME280;45705;55.592;37.460;2023-01-01T00:49:57;98613.88;;;0.71;100.00
58295;BME280;45705;55.592;37.460;2023-01-01T00:52:23;98578.41;;;0.49;100.00
58295;BME280;45705;55.592;37.460;2023-01-01T00:54:49;98602.00;;;0.57;100.00
58295;BME280;45705;55.592;37.460;2023-01-01T00:57:15;98583.41;;;0.77;100.00
58295;BME280;45705;55.592;37.460;2023-01-01T00:59:41;98593.88;;;0.42;100.00
58295;BME280;45705;55.592;37.460;2023-01-01T01:02:06;98588.00;;;0.45;100.00
58295;BME280;45705;55.592;37.460;2023-01-01T01:04:32;98581.09;;;0.54;100.00
58295;BME280;45705;55.592;37.460;2023-01-01T01:06:58;98581.34;;;0.52;100.00
58295;BME280;45705;55.592;37.460;2023-01-01T01:09:23;98506.84;;;0.29;100.00
58295;BME280;45705;55.592;37.460;2023-01-01T01:11:49;98575.94;;;0.80;100.00
58295;BME280;45705;55.592;37.460;2023-01-01T01:14:15;98577.19;;;0.67;100.00
58295;BME280;45705;55.592;37.460;2023-01-01T01:16:40;98574.88;;;0.81;100.00
58295;BME280;45705;55.592;37.460;2023-01-01T01:19:06;98553.91;;;0.67;100.00
58295;BME280;45705;55.592;37.460;2023-01-01T01:21:34;98564.56;;;0.57;100.00
58295;BME280;45705;55.592;37.460;2023-01-01T01:24:01;98545.28;;;0.55;100.00
58295;BME280;45705;55.592;37.460;2023-01-01T01:26:29;98552.81;;;0.63;100.00
58295;BME280;45705;55.592;37.460;2023-01-01T01:28:56;98535.22;;;0.77;100.00
58295;BME280;45705;55.592;37.460;2023-01-01T01:31:23;98540.63;;;0.83;100.00
58295;BME280;45705;55.592;37.460;2023-01-01T01:33:51;98538.91;;;0.61;100.00
58295;BME280;45705;55.592;37.460;2023-01-01T01:36:17;98536.06;;;0.83;100.00
58295;BME280;45705;55.592;37.460;2023-01-01T01:38:43;98538.75;;;0.78;100.00
58295;BME280;45705;55.592;37.460;2023-01-01T01:41:11;98539.63;;;0.94;100.00
58295;BME280;45705;55.592;37.460;2023-01-01T01:46:13;98523.53;;;0.84;100.00
58295;BME280;45705;55.592;37.460;2023-01-01T01:48:45;98527.75;;;0.74;100.00
58295;BME280;45705;55.592;37.460;2023-01-01T01:51:15;98522.97;;;0.87;100.00
58295;BME280;45705;55.592;37.460;2023-01-01T01:53:49;98522.41;;;0.74;100.00
58295;BME280;45705;55.592;37.460;2023-01-01T01:56:24;98499.81;;;0.60;100.00
58295;BME280;45705;55.592;37.460;2023-01-01T01:58:54;98501.56;;;0.82;100.00
58295;BME280;45705;55.592;37.460;2023-01-01T02:01:22;98519.13;;;0.62;100.00
58295;BME280;45705;55.592;37.460;2023-01-01T02:06:18;98505.34;;;0.91;100.00
58295;BME280;45705;55.592;37.460;2023-01-01T02:08:45;98504.31;;;1.02;100.00
58295;BME280;45705;55.592;37.460;2023-01-01T02:11:11;98510.19;;;0.94;100.00
58295;BME280;45705;55.592;37.460;2023-01-01T02:13:37;98503.78;;;1.00;100.00
58295;BME280;45705;55.592;37.460;2023-01-01T02:22:00;98494.34;;;0.87;100.00
58295;BME280;45705;55.592;37.460;2023-01-01T02:24:35;98497.63;;;1.00;100.00
58295;BME280;45705;55.592;37.460;2023-01-01T02:27:19;98485.56;;;0.97;100.00
58295;BME280;45705;55.592;37.460;2023-01-01T02:30:07;98472.44;;;1.01;100.00
58295;BME280;45705;55.592;37.460;2023-01-01T02:32:37;98483.97;;;1.01;100.00
58295;BME280;45705;55.592;37.460;2023-01-01T02:35:11;98472.13;;;0.82;100.00
58295;BME280;45705;55.592;37.460;2023-01-01T02:38:22;98479.91;;;0.88;100.00
58295;BME280;45705;55.592;37.460;2023-01-01T02:40:48;98466.84;;;0.97;100.00
58295;BME280;45705;55.592;37.460;2023-01-01T02:43:14;98470.63;;;1.11;100.00
58295;BME280;45705;55.592;37.460;2023-01-01T02:45:40;98465.31;;;1.16;100.00
58295;BME280;45705;55.592;37.460;2023-01-01T02:48:36;98470.06;;;1.04;100.00
58295;BME280;45705;55.592;37.460;2023-01-01T02:51:07;98466.28;;;0.95;100.00
58295;BME280;45705;55.592;37.460;2023-01-01T02:53:39;98453.47;;;1.12;100.00
58295;BME280;45705;55.592;37.460;2023-01-01T02:56:41;98445.44;;;0.97;100.00
58295;BME280;45705;55.592;37.460;2023-01-01T03:02:34;98416.19;;;0.80;100.00
58295;BME280;45705;55.592;37.460;2023-01-01T03:07:39;98429.41;;;1.17;100.00
58295;BME280;45705;55.592;37.460;2023-01-01T03:16:30;98430.94;;;0.88;100.00
58295;BME280;45705;55.592;37.460;2023-01-01T03:19:04;98418.63;;;0.87;100.00
58295;BME280;45705;55.592;37.460;2023-01-01T03:21:42;98419.66;;;0.81;100.00
58295;BME280;45705;55.592;37.460;2023-01-01T03:24:13;98406.41;;;1.16;100.00
58295;BME280;45705;55.592;37.460;2023-01-01T03:26:43;98412.78;;;1.10;100.00
58295;BME280;45705;55.592;37.460;2023-01-01T03:29:12;98406.34;;;1.06;100.00
58295;BME280;45705;55.592;37.460;2023-01-01T03:31:41;98403.63;;;0.81;100.00
58295;BME280;45705;55.592;37.460;2023-01-01T03:34:15;98394.56;;;0.92;100.00
58295;BME280;45705;55.592;37.460;2023-01-01T03:36:45;98388.72;;;1.21;100.00
58295;BME280;45705;55.592;37.460;2023-01-01T03:39:24;98384.97;;;1.16;100.00
58295;BME280;45705;55.592;37.460;2023-01-01T03:44:44;98370.44;;;0.82;100.00
58295;BME280;45705;55.592;37.460;2023-01-01T03:47:12;98375.84;;;1.17;100.00
58295;BME280;45705;55.592;37.460;2023-01-01T03:49:38;98363.00;;;1.20;100.00
58295;BME280;45705;55.592;37.460;2023-01-01T04:00:30;98343.47;;;1.14;100.00
58295;BME280;45705;55.592;37.460;2023-01-01T04:03:06;98340.53;;;1.36;100.00
58295;BME280;45705;55.592;37.460;2023-01-01T04:05:39;98342.94;;;1.37;100.00
58295;BME280;45705;55.592;37.460;2023-01-01T04:08:06;98343.22;;;1.51;100.00
58295;BME280;45705;55.592;37.460;2023-01-01T04:10:35;98345.88;;;1.46;100.00
58295;BME280;45705;55.592;37.460;2023-01-01T04:13:04;98354.97;;;1.45;100.00
58295;BME280;45705;55.592;37.460;2023-01-01T04:15:31;98337.56;;;1.53;100.00
58295;BME280;45705;55.592;37.460;2023-01-01T04:17:58;98339.19;;;1.54;100.00
58295;BME280;45705;55.592;37.460;2023-01-01T04:20:24;98318.03;;;1.16;100.00
58295;BME280;45705;55.592;37.460;2023-01-01T04:22:50;98312.13;;;1.04;100.00
58295;BME280;45705;55.592;37.460;2023-01-01T04:25:16;98317.50;;;1.14;100.00
58295;BME280;45705;55.592;37.460;2023-01-01T04:27:42;98318.00;;;0.91;100.00
58295;BME280;45705;55.592;37.460;2023-01-01T04:30:11;98312.66;;;1.22;100.00
58295;BME280;45705;55.592;37.460;2023-01-01T04:32:38;98310.25;;;1.00;100.00
58295;BME280;45705;55.592;37.460;2023-01-01T04:35:05;98307.84;;;1.13;100.00
58295;BME280;45705;55.592;37.460;2023-01-01T04:37:34;98311.34;;;1.19;100.00
58295;BME280;45705;55.592;37.460;2023-01-01T04:40:00;98306.53;;;1.26;100.00
58295;BME280;45705;55.592;37.460;2023-01-01T04:42:26;98314.81;;;1.35;100.00
58295;BME280;45705;55.592;37.460;2023-01-01T04:44:51;98308.38;;;1.41;100.00
58295;BME280;45705;55.592;37.460;2023-01-01T04:47:17;98307.31;;;1.27;100.00
58295;BME280;45705;55.592;37.460;2023-01-01T04:49:43;98305.19;;;1.44;100.00
58295;BME280;45705;55.592;37.460;2023-01-01T04:52:08;98290.72;;;1.14;100.00
58295;BME280;45705;55.592;37.460;2023-01-01T04:54:34;98282.13;;;1.12;100.00
58295;BME280;45705;55.592;37.460;2023-01-01T04:57:00;98311.59;;;1.07;100.00
58295;BME280;45705;55.592;37.460;2023-01-01T04:59:25;98318.03;;;1.32;100.00
58295;BME280;45705;55.592;37.460;2023-01-01T05:01:51;98299.28;;;1.37;100.00
58295;BME280;45705;55.592;37.460;2023-01-01T05:04:17;98297.69;;;1.21;100.00
58295;BME280;45705;55.592;37.460;2023-01-01T05:06:43;98298.19;;;1.02;100.00
58295;BME280;45705;55.592;37.460;2023-01-01T05:09:09;98298.47;;;1.16;100.00
58295;BME280;45705;55.592;37.460;2023-01-01T05:11:35;98308.91;;;1.43;100.00
58295;BME280;45705;55.592;37.460;2023-01-01T05:14:02;98299.84;;;1.34;100.00
58295;BME280;45705;55.592;37.460;2023-01-01T05:16:30;98310.53;;;1.44;100.00
58295;BME280;45705;55.592;37.460;2023-01-01T05:18:57;98299.81;;;1.44;100.00
58295;BME280;45705;55.592;37.460;2023-01-01T05:21:31;98300.06;;;1.58;100.00
58295;BME280;45705;55.592;37.460;2023-01-01T05:23:59;98299.78;;;1.65;100.00
58295;BME280;45705;55.592;37.460;2023-01-01T05:26:29;98302.22;;;1.35;100.00
58295;BME280;45705;55.592;37.460;2023-01-01T05:28:57;98293.38;;;1.30;100.00
58295;BME280;45705;55.592;37.460;2023-01-01T05:31:24;98296.34;;;1.59;100.00
58295;BME280;45705;55.592;37.460;2023-01-01T05:33:51;98272.47;;;1.57;100.00
58295;BME280;45705;55.592;37.460;2023-01-01T05:36:20;98283.69;;;1.65;100.00
58295;BME280;45705;55.592;37.460;2023-01-01T05:38:48;98272.47;;;1.57;100.00
58295;BME280;45705;55.592;37.460;2023-01-01T05:41:16;98283.69;;;1.70;100.00
58295;BME280;45705;55.592;37.460;2023-01-01T05:43:42;98285.88;;;1.52;100.00
58295;BME280;45705;55.592;37.460;2023-01-01T05:46:17;98276.22;;;1.67;100.00
58295;BME280;45705;55.592;37.460;2023-01-01T05:48:43;98289.56;;;1.82;100.00
58295;BME280;45705;55.592;37.460;2023-01-01T05:51:15;98279.41;;;1.84;100.00
58295;BME280;45705;55.592;37.460;2023-01-01T05:53:41;98280.41;;;1.93;100.00
58295;BME280;45705;55.592;37.460;2023-01-01T05:56:10;98267.63;;;1.75;100.00
58295;BME280;45705;55.592;37.460;2023-01-01T05:58:36;98250.97;;;1.88;100.00
58295;BME280;45705;55.592;37.460;2023-01-01T06:01:16;98264.41;;;1.68;100.00
58295;BME280;45705;55.592;37.460;2023-01-01T06:03:42;98267.09;;;1.68;100.00
58295;BME280;45705;55.592;37.460;2023-01-01T06:06:13;98260.16;;;1.56;100.00
58295;BME280;45705;55.592;37.460;2023-01-01T06:08:39;98270.34;;;1.44;100.00
58295;BME280;45705;55.592;37.460;2023-01-01T06:11:08;98260.69;;;1.53;100.00
58295;BME280;45705;55.592;37.460;2023-01-01T06:13:35;98261.44;;;1.74;100.00
58295;BME280;45705;55.592;37.460;2023-01-01T06:16:01;98246.19;;;1.75;100.00
58295;BME280;45705;55.592;37.460;2023-01-01T06:18:32;98249.38;;;1.77;100.00
58295;BME280;45705;55.592;37.460;2023-01-01T06:21:14;98237.66;;;1.47;100.00
58295;BME280;45705;55.592;37.460;2023-01-01T06:23:41;98235.47;;;1.70;100.00
58295;BME280;45705;55.592;37.460;2023-01-01T06:28:37;98235.44;;;1.80;100.00
58295;BME280;45705;55.592;37.460;2023-01-01T06:31:04;98239.25;;;1.64;100.00
58295;BME280;45705;55.592;37.460;2023-01-01T06:33:30;98246.19;;;1.75;100.00
58295;BME280;45705;55.592;37.460;2023-01-01T06:35:56;98255.22;;;1.94;100.00
58295;BME280;45705;55.592;37.460;2023-01-01T06:38:22;98258.97;;;1.99;100.00
58295;BME280;45705;55.592;37.460;2023-01-01T06:40:55;98257.91;;;1.89;100.00
58295;BME280;45705;55.592;37.460;2023-01-01T06:43:21;98232.28;;;1.52;100.00
58295;BME280;45705;55.592;37.460;2023-01-01T06:45:47;98229.06;;;1.61;100.00
58295;BME280;45705;55.592;37.460;2023-01-01T06:48:12;98230.66;;;1.62;100.00
58295;BME280;45705;55.592;37.460;2023-01-01T06:50:38;98225.22;;;1.82;100.00
58295;BME280;45705;55.592;37.460;2023-01-01T06:53:04;98220.38;;;1.89;100.00
58295;BME280;45705;55.592;37.460;2023-01-01T06:55:29;98219.97;;;1.62;100.00
58295;BME280;45705;55.592;37.460;2023-01-01T06:57:55;98204.63;;;1.72;100.00
58295;BME280;45705;55.592;37.460;2023-01-01T07:00:21;98187.59;;;1.48;100.00
58295;BME280;45705;55.592;37.460;2023-01-01T07:02:47;98194.75;;;1.63;100.00
58295;BME280;45705;55.592;37.460;2023-01-01T07:05:13;98180.59;;;1.52;100.00
58295;BME280;45705;55.592;37.460;2023-01-01T07:07:38;98197.44;;;1.68;100.00
58295;BME280;45705;55.592;37.460;2023-01-01T07:10:04;98195.84;;;1.67;100.00
58295;BME280;45705;55.592;37.460;2023-01-01T07:12:30;98197.44;;;1.68;100.00
58295;BME280;45705;55.592;37.460;2023-01-01T07:14:56;98204.66;;;1.67;100.00
58295;BME280;45705;55.592;37.460;2023-01-01T07:17:21;98193.03;;;1.92;100.00
58295;BME280;45705;55.592;37.460;2023-01-01T07:19:47;98196.78;;;1.91;100.00
58295;BME280;45705;55.592;37.460;2023-01-01T07:22:13;98197.59;;;1.92;100.00
58295;BME280;45705;55.592;37.460;2023-01-01T07:24:38;98185.47;;;2.05;100.00
58295;BME280;45705;55.592;37.460;2023-01-01T07:27:04;98182.28;;;1.97;100.00
58295;BME280;45705;55.592;37.460;2023-01-01T07:29:30;98186.47;;;2.19;100.00
58295;BME280;45705;55.592;37.460;2023-01-01T07:31:55;98182.63;;;2.30;100.00
58295;BME280;45705;55.592;37.460;2023-01-01T07:34:21;98169.31;;;2.15;100.00
58295;BME280;45705;55.592;37.460;2023-01-01T07:36:48;98175.13;;;2.32;100.00
58295;BME280;45705;55.592;37.460;2023-01-01T07:39:13;98171.44;;;2.23;100.00
58295;BME280;45705;55.592;37.460;2023-01-01T07:41:39;98182.28;;;2.42;100.00
58295;BME280;45705;55.592;37.460;2023-01-01T07:44:05;98183.63;;;2.45;100.00
58295;BME280;45705;55.592;37.460;2023-01-01T07:46:33;98180.97;;;2.40;100.00
58295;BME280;45705;55.592;37.460;2023-01-01T07:48:59;98177.22;;;2.41;100.00
58295;BME280;45705;55.592;37.460;2023-01-01T07:51:24;98176.13;;;2.47;100.00
58295;BME280;45705;55.592;37.460;2023-01-01T07:53:50;98173.34;;;2.57;100.00
58295;BME280;45705;55.592;37.460;2023-01-01T07:56:16;98182.44;;;2.61;100.00
58295;BME280;45705;55.592;37.460;2023-01-01T07:58:42;98174.28;;;2.76;100.00
58295;BME280;45705;55.592;37.460;2023-01-01T08:01:12;98166.13;;;2.87;100.00
58295;BME280;45705;55.592;37.460;2023-01-01T08:03:39;98165.16;;;2.78;100.00
58295;BME280;45705;55.592;37.460;2023-01-01T08:06:09;98157.50;;;2.90;100.00
58295;BME280;45705;55.592;37.460;2023-01-01T08:08:36;98169.31;;;2.89;100.00
58295;BME280;45705;55.592;37.460;2023-01-01T08:11:02;98164.44;;;2.96;100.00
58295;BME280;45705;55.592;37.460;2023-01-01T08:13:29;98170.91;;;2.95;100.00
58295;BME280;45705;55.592;37.460;2023-01-01T08:15:56;98173.19;;;2.78;100.00
58295;BME280;45705;55.592;37.460;2023-01-01T08:18:22;98162.09;;;2.89;100.00
58295;BME280;45705;55.592;37.460;2023-01-01T08:20:48;98176.28;;;2.95;100.00
58295;BME280;45705;55.592;37.460;2023-01-01T08:23:14;98168.78;;;2.92;100.00
58295;BME280;45705;55.592;37.460;2023-01-01T08:25:39;98161.81;;;2.91;100.00
58295;BME280;45705;55.592;37.460;2023-01-01T08:28:05;98154.81;;;2.90;100.00
58295;BME280;45705;55.592;37.460;2023-01-01T08:30:30;98148.38;;;2.91;100.00
58295;BME280;45705;55.592;37.460;2023-01-01T08:32:56;98154.41;;;2.78;100.00
58295;BME280;45705;55.592;37.460;2023-01-01T08:35:22;98151.97;;;2.81;100.00
58295;BME280;45705;55.592;37.460;2023-01-01T08:37:48;98144.59;;;2.92;100.00
58295;BME280;45705;55.592;37.460;2023-01-01T08:40:14;98144.50;;;3.02;100.00
58295;BME280;45705;55.592;37.460;2023-01-01T08:42:40;98136.97;;;3.04;100.00
58295;BME280;45705;55.592;37.460;2023-01-01T08:45:06;98132.06;;;3.11;100.00
58295;BME280;45705;55.592;37.460;2023-01-01T08:47:32;98124.41;;;3.24;100.00
58295;BME280;45705;55.592;37.460;2023-01-01T08:49:58;98128.19;;;3.23;100.00
58295;BME280;45705;55.592;37.460;2023-01-01T08:52:23;98126.53;;;3.27;100.00
58295;BME280;45705;55.592;37.460;2023-01-01T08:54:49;98133.56;;;3.23;100.00
58295;BME280;45705;55.592;37.460;2023-01-01T08:57:15;98116.94;;;3.21;100.00
58295;BME280;45705;55.592;37.460;2023-01-01T08:59:41;98120.84;;;3.04;100.00
58295;BME280;45705;55.592;37.460;2023-01-01T09:02:07;98117.34;;;3.09;100.00
58295;BME280;45705;55.592;37.460;2023-01-01T09:04:33;98116.06;;;3.25;100.00
58295;BME280;45705;55.592;37.460;2023-01-01T09:06:59;98116.88;;;3.26;100.00
58295;BME280;45705;55.592;37.460;2023-01-01T09:09:25;98123.69;;;2.89;100.00
58295;BME280;45705;55.592;37.460;2023-01-01T09:11:53;98122.94;;;3.12;100.00
58295;BME280;45705;55.592;37.460;2023-01-01T09:14:19;98110.03;;;3.14;100.00
58295;BME280;45705;55.592;37.460;2023-01-01T09:16:45;98100.81;;;3.21;100.00
58295;BME280;45705;55.592;37.460;2023-01-01T09:19:11;98089.78;;;3.22;100.00
58295;BME280;45705;55.592;37.460;2023-01-01T09:21:36;98078.56;;;3.39;100.00
58295;BME280;45705;55.592;37.460;2023-01-01T09:24:02;98069.06;;;3.28;100.00
58295;BME280;45705;55.592;37.460;2023-01-01T09:26:28;98075.50;;;3.51;100.00
58295;BME280;45705;55.592;37.460;2023-01-01T09:28:54;98079.59;;;3.19;100.00
58295;BME280;45705;55.592;37.460;2023-01-01T09:31:20;98085.78;;;3.20;100.00
58295;BME280;45705;55.592;37.460;2023-01-01T09:33:45;98074.81;;;3.40;100.00
58295;BME280;45705;55.592;37.460;2023-01-01T09:38:40;98060.94;;;3.52;100.00
58295;BME280;45705;55.592;37.460;2023-01-01T09:46:14;98049.81;;;3.59;100.00
58295;BME280;45705;55.592;37.460;2023-01-01T09:48:50;98058.78;;;3.54;100.00
58295;BME280;45705;55.592;37.460;2023-01-01T09:51:18;98058.44;;;3.61;100.00
58295;BME280;45705;55.592;37.460;2023-01-01T09:54:11;98056.75;;;3.65;100.00
58295;BME280;45705;55.592;37.460;2023-01-01T09:56:43;98040.88;;;3.44;100.00
58295;BME280;45705;55.592;37.460;2023-01-01T09:59:10;98048.78;;;3.79;100.00
58295;BME280;45705;55.592;37.460;2023-01-01T10:01:50;98051.97;;;4.00;100.00
58295;BME280;45705;55.592;37.460;2023-01-01T10:15:22;98036.06;;;3.84;100.00
58295;BME280;45705;55.592;37.460;2023-01-01T10:17:56;98025.19;;;4.08;100.00
58295;BME280;45705;55.592;37.460;2023-01-01T10:20:24;98021.63;;;4.13;100.00
58295;BME280;45705;55.592;37.460;2023-01-01T10:22:53;98020.59;;;4.09;100.00
58295;BME280;45705;55.592;37.460;2023-01-01T10:25:22;98020.03;;;4.12;100.00
58295;BME280;45705;55.592;37.460;2023-01-01T10:27:50;98022.22;;;4.10;100.00
58295;BME280;45705;55.592;37.460;2023-01-01T10:30:20;97992.28;;;3.98;100.00
58295;BME280;45705;55.592;37.460;2023-01-01T10:32:48;98003.56;;;4.32;100.00
58295;BME280;45705;55.592;37.460;2023-01-01T10:35:18;97994.16;;;4.30;100.00
58295;BME280;45705;55.592;37.460;2023-01-01T10:37:44;97998.06;;;4.38;100.00
58295;BME280;45705;55.592;37.460;2023-01-01T10:40:19;97982.59;;;4.29;100.00
58295;BME280;45705;55.592;37.460;2023-01-01T10:42:53;97987.50;;;4.27;100.00
58295;BME280;45705;55.592;37.460;2023-01-01T10:45:43;97991.19;;;4.31;100.00
58295;BME280;45705;55.592;37.460;2023-01-01T10:48:15;97981.00;;;4.28;100.00
58295;BME280;45705;55.592;37.460;2023-01-01T10:50:53;97976.72;;;4.27;100.00
58295;BME280;45705;55.592;37.460;2023-01-01T10:53:40;97974.44;;;4.21;100.00
58295;BME280;45705;55.592;37.460;2023-01-01T10:56:14;97972.63;;;4.16;100.00
58295;BME280;45705;55.592;37.460;2023-01-01T10:58:54;97973.03;;;4.23;100.00
58295;BME280;45705;55.592;37.460;2023-01-01T11:01:23;97972.84;;;4.33;100.00
58295;BME280;45705;55.592;37.460;2023-01-01T11:06:43;97955.13;;;4.32;100.00
58295;BME280;45705;55.592;37.460;2023-01-01T11:09:19;97959.47;;;4.28;100.00
58295;BME280;45705;55.592;37.460;2023-01-01T11:11:47;97949.75;;;4.32;100.00
58295;BME280;45705;55.592;37.460;2023-01-01T11:14:22;97939.38;;;3.93;100.00
58295;BME280;45705;55.592;37.460;2023-01-01T11:16:50;97954.97;;;4.10;100.00
58295;BME280;45705;55.592;37.460;2023-01-01T11:19:32;97951.31;;;4.33;100.00
58295;BME280;45705;55.592;37.460;2023-01-01T11:22:00;97955.19;;;4.13;100.00
58295;BME280;45705;55.592;37.460;2023-01-01T11:24:28;97949.91;;;4.22;100.00
58295;BME280;45705;55.592;37.460;2023-01-01T11:29:37;97948.56;;;4.39;100.00
58295;BME280;45705;55.592;37.460;2023-01-01T11:32:06;97937.31;;;4.04;100.00
58295;BME280;45705;55.592;37.460;2023-01-01T11:34:35;97946.81;;;4.15;100.00
58295;BME280;45705;55.592;37.460;2023-01-01T11:40:34;97943.34;;;4.28;100.00
58295;BME280;45705;55.592;37.460;2023-01-01T11:43:02;97936.38;;;4.27;100.00
58295;BME280;45705;55.592;37.460;2023-01-01T11:45:37;97933.38;;;4.15;100.00
58295;BME280;45705;55.592;37.460;2023-01-01T11:48:19;97926.47;;;4.09;100.00
58295;BME280;45705;55.592;37.460;2023-01-01T11:50:54;97925.19;;;4.34;100.00
58295;BME280;45705;55.592;37.460;2023-01-01T11:55:59;97917.53;;;4.27;100.00
58295;BME280;45705;55.592;37.460;2023-01-01T11:58:54;97914.63;;;4.10;100.00
58295;BME280;45705;55.592;37.460;2023-01-01T12:01:25;97911.84;;;4.15;100.00
58295;BME280;45705;55.592;37.460;2023-01-01T12:04:00;97909.69;;;4.31;100.00
58295;BME280;45705;55.592;37.460;2023-01-01T12:12:23;97902.50;;;4.54;100.00
58295;BME280;45705;55.592;37.460;2023-01-01T12:17:24;97883.56;;;4.31;100.00
58295;BME280;45705;55.592;37.460;2023-01-01T12:22:20;97882.34;;;4.38;100.00
58295;BME280;45705;55.592;37.460;2023-01-01T12:24:47;97890.94;;;4.40;100.00
58295;BME280;45705;55.592;37.460;2023-01-01T12:27:39;97891.34;;;4.47;100.00
58295;BME280;45705;55.592;37.460;2023-01-01T12:30:19;97892.75;;;4.44;100.00
58295;BME280;45705;55.592;37.460;2023-01-01T12:35:56;97885.75;;;4.16;100.00
58295;BME280;45705;55.592;37.460;2023-01-01T12:46:45;97886.94;;;4.37;100.00
58295;BME280;45705;55.592;37.460;2023-01-01T12:58:11;97881.47;;;4.56;100.00
58295;BME280;45705;55.592;37.460;2023-01-01T13:00:42;97894.72;;;4.52;100.00
58295;BME280;45705;55.592;37.460;2023-01-01T13:03:19;97870.78;;;4.51;100.00
58295;BME280;45705;55.592;37.460;2023-01-01T13:05:50;97875.38;;;4.64;100.00
58295;BME280;45705;55.592;37.460;2023-01-01T13:08:18;97866.72;;;4.40;100.00
58295;BME280;45705;55.592;37.460;2023-01-01T13:10:53;97862.53;;;4.33;100.00
58295;BME280;45705;55.592;37.460;2023-01-01T13:13:20;97858.63;;;4.40;100.00
58295;BME280;45705;55.592;37.460;2023-01-01T13:15:47;97853.66;;;4.47;100.00
58295;BME280;45705;55.592;37.460;2023-01-01T13:21:06;97862.34;;;4.58;100.00
58295;BME280;45705;55.592;37.460;2023-01-01T13:39:56;97836.25;;;4.81;100.00
58295;BME280;45705;55.592;37.460;2023-01-01T13:45:26;97838.34;;;4.84;100.00
58295;BME280;45705;55.592;37.460;2023-01-01T14:02:25;97827.03;;;4.73;100.00
58295;BME280;45705;55.592;37.460;2023-01-01T14:04:56;97828.53;;;4.65;100.00
58295;BME280;45705;55.592;37.460;2023-01-01T14:07:47;97831.72;;;4.67;100.00
58295;BME280;45705;55.592;37.460;2023-01-01T14:12:50;97842.47;;;4.67;100.00
58295;BME280;45705;55.592;37.460;2023-01-01T14:15:37;97841.63;;;4.81;100.00
58295;BME280;45705;55.592;37.460;2023-01-01T14:18:15;97846.03;;;4.77;100.00
58295;BME280;45705;55.592;37.460;2023-01-01T14:20:49;97837.25;;;4.71;100.00
58295;BME280;45705;55.592;37.460;2023-01-01T14:23:17;97833.69;;;4.76;100.00
58295;BME280;45705;55.592;37.460;2023-01-01T14:25:44;97822.91;;;4.76;100.00
58295;BME280;45705;55.592;37.460;2023-01-01T14:28:23;97810.97;;;4.68;100.00
58295;BME280;45705;55.592;37.460;2023-01-01T14:30:50;97816.31;;;4.82;100.00
58295;BME280;45705;55.592;37.460;2023-01-01T14:33:22;97810.28;;;4.62;100.00
58295;BME280;45705;55.592;37.460;2023-01-01T14:35:53;97810.34;;;4.71;100.00
58295;BME280;45705;55.592;37.460;2023-01-01T14:38:42;97804.78;;;4.53;100.00
58295;BME280;45705;55.592;37.460;2023-01-01T14:41:27;97812.97;;;4.62;100.00
58295;BME280;45705;55.592;37.460;2023-01-01T14:43:56;97825.94;;;4.60;100.00
58295;BME280;45705;55.592;37.460;2023-01-01T14:46:24;97831.22;;;4.65;100.00
58295;BME280;45705;55.592;37.460;2023-01-01T14:48:55;97817.13;;;4.68;100.00
58295;BME280;45705;55.592;37.460;2023-01-01T14:51:26;97808.34;;;4.77;100.00
58295;BME280;45705;55.592;37.460;2023-01-01T14:53:57;97802.78;;;4.73;100.00
58295;BME280;45705;55.592;37.460;2023-01-01T14:56:33;97798.19;;;4.73;100.00
58295;BME280;45705;55.592;37.460;2023-01-01T14:59:20;97782.97;;;4.55;100.00
58295;BME280;45705;55.592;37.460;2023-01-01T15:04:37;97791.19;;;4.72;100.00
58295;BME280;45705;55.592;37.460;2023-01-01T15:07:03;97792.31;;;4.71;100.00
58295;BME280;45705;55.592;37.460;2023-01-01T15:09:30;97800.97;;;4.68;100.00
58295;BME280;45705;55.592;37.460;2023-01-01T15:11:57;97796.59;;;4.72;100.00
58295;BME280;45705;55.592;37.460;2023-01-01T15:17:05;97788.91;;;4.80;100.00
58295;BME280;45705;55.592;37.460;2023-01-01T15:19:32;97791.00;;;4.83;100.00
58295;BME280;45705;55.592;37.460;2023-01-01T15:22:00;97787.91;;;4.98;100.00
58295;BME280;45705;55.592;37.460;2023-01-01T15:24:26;97777.16;;;4.98;100.00